Airport View

Enter AWOS ICAO identifier for current METAR.

ex. KFNL

KEDE 040605Z AUTO 16014G34KT 2SM +RA BKN012 OVC021 27/26 A2978 RMK AO2 P0012 T02650260

4 Aug 2020 06:05

Frequency: 118.275

Phone: 252-482-0757

Other Area AWOS: KECG - KASJ - KONX - KOCW

TAF KECG 040520Z 0406/0506 13013G20KT 6SM SHRA BKN050 TEMPO 0406/0409 12020G35KT 1SM +RA BKN008 FM040900 12031G43KT 3SM +RA BKN005 BKN030 FM041000 16039G52KT 2SM +RA BKN005 BKN025 FM041200 21034G46KT 3SM +RA OVC025 FM041500 24018G28KT P6SM VCSH BKN025 FM041700 24012G19KT P6SM BKN050